createdAt,value
2019-04-27T00:01:20.687Z,33.48
2019-04-27T00:03:53.989Z,28.30
2019-04-27T00:06:27.219Z,30.43
2019-04-27T00:09:00.250Z,37.85
2019-04-27T00:11:33.362Z,33.28
2019-04-27T00:14:04.847Z,63.63
2019-04-27T00:16:40.517Z,36.25
2019-04-27T00:19:13.075Z,35.55
2019-04-27T00:21:45.836Z,40.98
2019-04-27T00:24:18.665Z,34.27
2019-04-27T00:26:49.869Z,29.07
2019-04-27T00:29:21.578Z,27.83
2019-04-27T00:31:55.513Z,31.05
2019-04-27T00:34:26.167Z,29.92
2019-04-27T00:36:58.798Z,27.65
2019-04-27T00:39:32.936Z,23.80
2019-04-27T00:42:04.165Z,27.87
2019-04-27T00:44:35.641Z,24.43
2019-04-27T00:47:08.634Z,76.33
2019-04-27T00:49:40.323Z,52.43
2019-04-27T00:52:13.778Z,20.70
2019-04-27T00:54:44.864Z,77.90
2019-04-27T00:57:17.305Z,24.65
2019-04-27T00:59:50.433Z,22.05
2019-04-27T01:02:23.620Z,20.15
2019-04-27T01:04:55.421Z,25.68
2019-04-27T01:07:27.154Z,25.45
2019-04-27T01:09:58.542Z,20.72
2019-04-27T01:12:30.048Z,35.90
2019-04-27T01:15:03.548Z,19.77
2019-04-27T01:17:34.807Z,20.82
2019-04-27T01:20:08.590Z,23.52
2019-04-27T01:22:40.582Z,22.37
2019-04-27T01:25:12.331Z,23.38
2019-04-27T01:30:16.787Z,19.20
2019-04-27T01:32:49.385Z,20.90
2019-04-27T01:35:21.004Z,21.48
2019-04-27T01:37:52.103Z,22.87
2019-04-27T01:40:23.849Z,21.07
2019-04-27T01:45:25.267Z,24.67
2019-04-27T01:47:56.374Z,22.77
2019-04-27T01:50:28.955Z,22.65
2019-04-27T01:53:00.702Z,23.25
2019-04-27T01:55:32.255Z,27.98
2019-04-27T01:58:03.919Z,30.12
2019-04-27T02:00:39.604Z,27.32
2019-04-27T02:03:12.803Z,30.43
2019-04-27T02:05:45.410Z,31.30
2019-04-27T02:08:16.552Z,35.00
2019-04-27T02:10:49.584Z,22.73
2019-04-27T02:13:21.901Z,24.15
2019-04-27T02:15:53.554Z,27.40
2019-04-27T02:18:36.928Z,23.05
2019-04-27T02:20:59.143Z,21.82
2019-04-27T02:23:30.793Z,26.02
2019-04-27T02:26:02.039Z,22.13
2019-04-27T02:28:34.621Z,23.42
2019-04-27T02:31:09.850Z,25.57
2019-04-27T02:33:41.836Z,25.27
2019-04-27T02:36:15.144Z,25.12
2019-04-27T02:38:46.195Z,22.17
2019-04-27T02:43:49.755Z,19.05
2019-04-27T02:46:31.546Z,22.13
2019-04-27T02:49:06.524Z,25.40
2019-04-27T02:51:37.318Z,20.05
2019-04-27T02:54:12.005Z,19.42
2019-04-27T02:56:41.525Z,19.32
2019-04-27T02:59:13.513Z,24.05
2019-04-27T03:01:46.905Z,24.55
2019-04-27T03:04:20.403Z,22.37
2019-04-27T03:06:51.425Z,24.65
2019-04-27T03:09:22.323Z,23.73
2019-04-27T03:11:53.791Z,20.48
2019-04-27T03:14:34.880Z,20.90
2019-04-27T03:17:00.333Z,21.80
2019-04-27T03:19:33.449Z,22.40
2019-04-27T03:22:06.204Z,23.12
2019-04-27T03:24:39.446Z,20.08
2019-04-27T03:27:10.793Z,23.95
2019-04-27T03:29:42.674Z,18.70
2019-04-27T03:32:13.910Z,20.57
2019-04-27T03:34:45.355Z,22.48
2019-04-27T03:37:16.691Z,24.02
2019-04-27T03:39:49.907Z,22.35
2019-04-27T03:42:21.014Z,22.50
2019-04-27T03:44:52.335Z,24.02
2019-04-27T03:47:24.043Z,26.23
2019-04-27T03:49:55.785Z,23.62
2019-04-27T04:42:16.141Z,25.90
2019-04-27T04:44:50.228Z,21.27
2019-04-27T04:51:53.212Z,22.67
2019-04-27T06:06:14.514Z,22.65
2019-04-27T06:19:23.555Z,19.32
2019-04-27T07:07:44.256Z,16.62
2019-04-27T07:10:16.059Z,17.05
2019-04-27T07:12:49.037Z,16.35
2019-04-27T07:15:20.631Z,17.40
2019-04-27T07:20:22.076Z,18.67
2019-04-27T07:22:53.139Z,20.00
2019-04-27T07:25:24.280Z,16.80
2019-04-27T07:27:55.466Z,20.27
2019-04-27T07:30:26.741Z,16.62
2019-04-27T07:32:58.877Z,16.05
2019-04-27T07:35:30.516Z,16.90
2019-04-27T07:38:01.349Z,17.02
2019-04-27T07:40:33.140Z,16.97
2019-04-27T07:43:06.530Z,17.87
2019-04-27T07:45:39.576Z,15.30
2019-04-27T07:48:10.581Z,20.82
2019-04-27T07:50:42.355Z,18.00
2019-04-27T07:53:14.230Z,18.27
2019-04-27T07:55:45.245Z,17.25
2019-04-27T07:58:16.986Z,21.17
2019-04-27T08:00:49.191Z,16.07
2019-04-27T08:03:21.874Z,18.23
2019-04-27T08:05:53.141Z,21.77
2019-04-27T08:08:24.215Z,17.85
2019-04-27T08:10:55.922Z,18.82
2019-04-27T08:13:27.020Z,17.17
2019-04-27T08:15:59.056Z,16.82
2019-04-27T08:18:30.153Z,17.67
2019-04-27T08:21:01.922Z,22.37
2019-04-27T08:23:33.249Z,17.55
2019-04-27T08:26:05.849Z,17.98
2019-04-27T08:28:38.686Z,26.77
2019-04-27T08:31:11.273Z,18.05
2019-04-27T08:33:42.868Z,18.35
2019-04-27T08:36:14.363Z,18.67
2019-04-27T08:41:16.642Z,19.30
2019-04-27T08:43:48.835Z,19.55
2019-04-27T08:46:20.471Z,17.55
2019-04-27T08:48:51.641Z,17.82
2019-04-27T08:51:23.459Z,18.35
2019-04-27T08:53:54.654Z,17.12
2019-04-27T08:56:25.915Z,18.17
2019-04-27T08:58:57.421Z,17.75
2019-04-27T09:01:29.926Z,16.50
2019-04-27T09:04:01.313Z,17.52
2019-04-27T09:06:33.263Z,16.40
2019-04-27T09:09:06.068Z,19.40
2019-04-27T09:11:39.228Z,19.65
2019-04-27T09:14:11.832Z,16.87
2019-04-27T09:16:57.236Z,19.15
2019-04-27T09:19:18.852Z,17.10
2019-04-27T09:21:51.925Z,18.92
2019-04-27T09:24:23.205Z,22.70
2019-04-27T09:26:54.583Z,17.48
2019-04-27T09:29:25.532Z,19.87
2019-04-27T09:31:57.151Z,19.23
2019-04-27T09:36:58.576Z,21.97
2019-04-27T09:39:30.187Z,22.85
2019-04-27T09:44:31.387Z,17.62
2019-04-27T09:47:03.062Z,17.30
2019-04-27T09:52:06.257Z,18.52
2019-04-27T09:54:37.656Z,20.05
2019-04-27T09:57:09.141Z,16.70
2019-04-27T09:59:40.976Z,18.87
2019-04-27T10:02:12.121Z,22.07
2019-04-27T10:04:43.268Z,20.35
2019-04-27T10:07:16.563Z,19.07
2019-04-27T10:09:47.461Z,18.42
2019-04-27T10:12:18.898Z,22.35
2019-04-27T10:14:50.512Z,27.50
2019-04-27T10:19:51.721Z,25.80
2019-04-27T10:22:22.836Z,23.62
2019-04-27T10:24:54.471Z,29.67
2019-04-27T10:27:25.999Z,29.07
2019-04-27T10:29:58.591Z,28.92
2019-04-27T10:32:30.377Z,32.17
2019-04-27T10:35:02.085Z,29.63
2019-04-27T10:40:03.584Z,26.25
2019-04-27T10:42:35.852Z,22.95
2019-04-27T10:45:09.748Z,27.58
2019-04-27T10:47:41.548Z,27.32
2019-04-27T10:50:12.827Z,19.65
2019-04-27T10:52:53.450Z,18.17
2019-04-27T10:55:17.235Z,18.00
2019-04-27T10:57:48.481Z,16.60
2019-04-27T11:00:21.834Z,18.98
2019-04-27T11:02:53.341Z,20.92
2019-04-27T11:05:30.854Z,17.80
2019-04-27T11:07:59.709Z,21.05
2019-04-27T11:10:30.913Z,17.80
2019-04-27T11:13:02.351Z,22.20
2019-04-27T11:15:33.518Z,24.87
2019-04-27T11:18:06.290Z,31.97
2019-04-27T11:20:37.483Z,27.00
2019-04-27T11:23:12.105Z,27.07
2019-04-27T11:25:41.088Z,25.82
2019-04-27T11:28:12.560Z,25.43
2019-04-27T11:30:44.224Z,28.27
2019-04-27T11:33:16.212Z,27.20
2019-04-27T11:35:49.372Z,33.33
2019-04-27T11:38:20.603Z,26.27
2019-04-27T11:40:52.282Z,28.38
2019-04-27T11:43:24.045Z,21.27
2019-04-27T11:48:27.011Z,32.23
2019-04-27T11:50:58.571Z,28.35
2019-04-27T11:53:30.329Z,27.00
2019-04-27T11:56:01.791Z,27.90
2019-04-27T11:58:34.979Z,23.18
2019-04-27T12:01:06.786Z,21.95
2019-04-27T12:03:38.457Z,26.07
2019-04-27T12:06:09.750Z,24.80
2019-04-27T12:08:41.068Z,26.05
2019-04-27T12:11:12.448Z,23.52
2019-04-27T12:13:43.928Z,23.87
2019-04-27T12:16:17.537Z,23.45
2019-04-27T12:18:49.174Z,25.10
2019-04-27T12:21:20.948Z,23.18
2019-04-27T12:23:52.402Z,20.68
2019-04-27T12:26:25.943Z,17.70
2019-04-27T12:28:57.861Z,24.77
2019-04-27T12:34:00.683Z,20.48
2019-04-27T12:36:32.387Z,20.82
2019-04-27T12:39:05.529Z,22.60
2019-04-27T12:41:37.314Z,20.10
2019-04-27T12:44:08.679Z,18.23
2019-04-27T12:46:39.679Z,20.85
2019-04-27T12:49:10.853Z,16.67
2019-04-27T12:51:41.946Z,17.57
2019-04-27T12:54:14.077Z,18.57
2019-04-27T12:56:47.274Z,18.55
2019-04-27T12:59:19.347Z,17.30
2019-04-27T13:01:50.217Z,16.25
2019-04-27T13:04:21.090Z,16.50
2019-04-27T13:06:52.528Z,16.27
2019-04-27T13:09:25.570Z,28.80
2019-04-27T13:11:56.160Z,14.70
2019-04-27T13:14:27.059Z,14.13
2019-04-27T13:16:58.208Z,14.58
2019-04-27T13:19:29.243Z,19.48
2019-04-27T13:22:00.176Z,15.07
2019-04-27T13:24:31.002Z,15.93
2019-04-27T13:27:01.868Z,17.17
2019-04-27T13:29:32.672Z,15.03
2019-04-27T13:32:03.494Z,16.57
2019-04-27T13:34:34.321Z,19.95
2019-04-27T13:37:06.449Z,18.77
2019-04-27T13:39:37.258Z,12.75
2019-04-27T13:42:17.018Z,17.45
2019-04-27T13:44:47.835Z,15.80
2019-04-27T13:47:19.950Z,16.65
2019-04-27T13:49:52.048Z,20.23
2019-04-27T13:52:26.386Z,17.57
2019-04-27T13:54:57.562Z,19.23
2019-04-27T13:57:29.426Z,16.37
2019-04-27T14:00:01.343Z,15.20
2019-04-27T14:05:04.598Z,16.55
2019-04-27T14:07:36.475Z,14.85
2019-04-27T14:10:09.383Z,21.75
2019-04-27T14:12:40.490Z,22.40
2019-04-27T14:15:12.765Z,14.55
2019-04-27T14:17:43.864Z,17.00
2019-04-27T14:20:15.299Z,18.10
2019-04-27T14:22:46.903Z,15.15
2019-04-27T14:25:18.678Z,18.20
2019-04-27T14:27:50.214Z,16.30
2019-04-27T14:30:22.211Z,18.35
2019-04-27T14:35:23.899Z,21.35
2019-04-27T14:37:55.659Z,24.43
2019-04-27T14:40:28.330Z,20.12
2019-04-27T14:42:59.790Z,18.82
2019-04-27T14:45:30.617Z,14.75
2019-04-27T14:48:01.945Z,17.52
2019-04-27T14:50:33.368Z,16.90
2019-04-27T14:53:04.944Z,15.58
2019-04-27T14:55:38.300Z,16.37
2019-04-27T14:58:09.734Z,17.20
2019-04-27T15:00:41.310Z,17.95
2019-04-27T15:03:13.016Z,16.65
2019-04-27T15:05:44.811Z,17.15
2019-04-27T15:08:15.971Z,17.27
2019-04-27T15:10:47.444Z,20.85
2019-04-27T15:13:18.870Z,18.42
2019-04-27T15:15:50.047Z,21.10
2019-04-27T15:18:21.659Z,19.83
2019-04-27T15:20:53.370Z,19.42
2019-04-27T15:23:26.576Z,16.17
2019-04-27T15:25:56.942Z,17.95
2019-04-27T15:28:29.359Z,15.60
2019-04-27T15:31:02.121Z,17.45
2019-04-27T15:33:34.926Z,18.17
2019-04-27T15:36:09.809Z,17.10
2019-04-27T15:38:43.029Z,15.75
2019-04-27T15:41:15.610Z,17.17
2019-04-27T15:43:48.731Z,17.23
2019-04-27T15:46:20.179Z,17.20
2019-04-27T15:48:54.198Z,18.02
2019-04-27T15:51:24.459Z,19.80
2019-04-27T15:53:56.128Z,17.85
2019-04-27T15:56:30.508Z,14.13
2019-04-27T15:59:01.086Z,15.25
2019-04-27T16:01:35.893Z,19.92
2019-04-27T16:04:09.487Z,17.98
2019-04-27T16:06:42.826Z,16.10
2019-04-27T16:09:16.014Z,17.40
2019-04-27T16:11:50.146Z,21.10
2019-04-27T16:14:19.398Z,20.27
2019-04-27T16:16:51.212Z,19.95
2019-04-27T16:19:22.887Z,18.77
2019-04-27T16:21:54.534Z,16.85
2019-04-27T16:24:26.183Z,19.00
2019-04-27T16:26:59.137Z,18.15
2019-04-27T16:29:31.656Z,19.87
2019-04-27T16:32:06.831Z,20.88
2019-04-27T16:34:39.576Z,19.85
2019-04-27T16:37:09.732Z,15.40
2019-04-27T16:39:45.570Z,19.32
2019-04-27T16:42:15.336Z,24.67
2019-04-27T16:44:51.395Z,16.07
2019-04-27T16:47:24.329Z,21.82
2019-04-27T16:49:52.742Z,17.65
2019-04-27T16:52:27.321Z,15.05
2019-04-27T16:54:58.960Z,17.75
2019-04-27T16:57:32.530Z,22.77
2019-04-27T17:00:02.583Z,20.27
2019-04-27T17:02:33.897Z,17.40
2019-04-27T17:05:05.105Z,27.52
2019-04-27T17:07:37.732Z,17.55
2019-04-27T17:10:09.886Z,23.00
2019-04-27T17:12:45.836Z,17.57
2019-04-27T17:15:16.376Z,25.37
2019-04-27T17:17:50.912Z,21.10
2019-04-27T17:20:22.048Z,17.27
2019-04-27T17:22:53.776Z,22.98
2019-04-27T17:25:25.574Z,20.95
2019-04-27T17:28:03.872Z,25.95
2019-04-27T17:30:32.458Z,24.47
2019-04-27T17:33:10.331Z,23.32
2019-04-27T17:35:41.283Z,19.80
2019-04-27T17:38:12.394Z,21.50
2019-04-27T17:40:42.572Z,21.07
2019-04-27T17:43:13.830Z,23.38
2019-04-27T17:45:45.629Z,21.07
2019-04-27T17:48:18.432Z,24.30
2019-04-27T17:50:50.218Z,21.35
2019-04-27T17:53:25.250Z,22.82
2019-04-27T17:55:55.004Z,23.62
2019-04-27T17:58:28.696Z,26.75
2019-04-27T18:01:00.003Z,23.65
2019-04-27T18:03:31.556Z,27.77
2019-04-27T18:06:03.241Z,25.20
2019-04-27T18:08:35.006Z,25.77
2019-04-27T18:11:08.621Z,29.37
2019-04-27T18:13:42.038Z,27.82
2019-04-27T18:16:12.376Z,28.07
2019-04-27T18:18:45.179Z,30.60
2019-04-27T18:21:19.495Z,26.68
2019-04-27T18:23:55.137Z,27.50
2019-04-27T18:26:25.674Z,32.00
2019-04-27T18:29:00.050Z,27.30
2019-04-27T18:31:30.362Z,31.55
2019-04-27T18:34:01.967Z,34.88
2019-04-27T18:36:37.884Z,29.72
2019-04-27T18:39:10.477Z,31.07
2019-04-27T18:41:44.426Z,32.95
2019-04-27T18:44:13.154Z,30.08
2019-04-27T18:46:44.279Z,31.75
2019-04-27T18:49:18.178Z,31.65
2019-04-27T18:51:52.559Z,27.98
2019-04-27T18:54:24.108Z,31.15
2019-04-27T18:57:02.069Z,31.05
2019-04-27T18:59:28.909Z,30.92
2019-04-27T19:02:00.662Z,33.70
2019-04-27T19:04:32.021Z,28.50
2019-04-27T19:07:03.664Z,33.33
2019-04-27T19:09:35.445Z,32.60
2019-04-27T19:12:07.023Z,28.83
2019-04-27T19:14:38.517Z,31.90
2019-04-27T19:17:09.945Z,25.95
2019-04-27T19:19:41.464Z,28.55
2019-04-27T19:22:13.194Z,27.22
2019-04-27T19:24:44.987Z,26.25
2019-04-27T19:27:20.530Z,25.10
2019-04-27T19:29:51.717Z,26.60
2019-04-27T19:32:23.083Z,30.80
2019-04-27T19:34:54.742Z,28.67
2019-04-27T19:37:25.861Z,28.55
2019-04-27T19:39:58.349Z,25.95
2019-04-27T19:42:29.661Z,28.42
2019-04-27T19:45:01.214Z,27.27
2019-04-27T19:47:32.975Z,36.45
2019-04-27T19:50:04.977Z,27.60
2019-04-27T19:52:36.462Z,36.30
2019-04-27T19:55:09.212Z,24.87
2019-04-27T19:57:42.119Z,28.45
2019-04-27T20:00:15.837Z,30.50
2019-04-27T20:02:47.925Z,29.85
2019-04-27T20:07:50.420Z,24.82
2019-04-27T20:10:22.158Z,27.73
2019-04-27T20:12:53.522Z,25.37
2019-04-27T20:15:25.048Z,24.67
2019-04-27T20:17:56.845Z,25.08
2019-04-27T20:20:28.368Z,27.22
2019-04-27T20:23:00.049Z,25.45
2019-04-27T20:25:31.779Z,26.20
2019-04-27T20:28:03.572Z,27.73
2019-04-27T20:30:35.433Z,27.45
2019-04-27T20:33:07.084Z,23.00
2019-04-27T20:35:38.231Z,20.37
2019-04-27T20:38:10.874Z,29.95
2019-04-27T20:40:42.586Z,26.52
2019-04-27T20:43:13.920Z,25.27
2019-04-27T20:45:45.543Z,31.07
2019-04-27T20:48:17.342Z,21.35
2019-04-27T20:50:48.994Z,21.57
2019-04-27T20:53:21.574Z,23.22
2019-04-27T20:55:52.928Z,22.17
2019-04-27T20:58:24.730Z,25.83
2019-04-27T21:00:56.076Z,24.00
2019-04-27T21:03:28.615Z,22.30
2019-04-27T21:06:01.353Z,25.05
2019-04-27T21:08:33.961Z,22.00
2019-04-27T21:11:05.135Z,23.12
2019-04-27T21:13:36.646Z,25.48
2019-04-27T21:16:08.031Z,24.63
2019-04-27T21:18:39.685Z,25.00
2019-04-27T21:21:11.377Z,25.45
2019-04-27T21:23:43.265Z,23.85
2019-04-27T21:26:15.005Z,24.75
2019-04-27T21:28:46.789Z,23.18
2019-04-27T21:31:18.557Z,31.57
2019-04-27T21:33:50.087Z,26.65
2019-04-27T21:36:21.812Z,28.83
2019-04-27T21:38:53.326Z,25.08
2019-04-27T21:41:24.735Z,25.12
2019-04-27T21:43:56.325Z,23.27
2019-04-27T21:46:27.689Z,24.15
2019-04-27T21:48:59.327Z,22.53
2019-04-27T21:51:31.399Z,23.18
2019-04-27T21:54:04.247Z,27.00
2019-04-27T21:56:35.866Z,27.00
2019-04-27T21:59:07.626Z,24.95
2019-04-27T22:01:39.172Z,24.70
2019-04-27T22:04:11.424Z,26.05
2019-04-27T22:06:43.203Z,25.17
2019-04-27T22:09:16.176Z,28.55
2019-04-27T22:11:47.324Z,27.10
2019-04-27T22:14:19.136Z,28.38
2019-04-27T22:16:51.754Z,26.33
2019-04-27T22:19:22.896Z,24.02
2019-04-27T22:21:54.588Z,27.27
2019-04-27T22:24:27.302Z,29.95
2019-04-27T22:26:58.630Z,25.68
2019-04-27T22:29:31.953Z,28.73
2019-04-27T22:32:03.127Z,30.48
2019-04-27T22:34:34.514Z,25.35
2019-04-27T22:37:06.349Z,34.37
2019-04-27T22:39:39.002Z,34.10
2019-04-27T22:42:12.114Z,28.95
2019-04-27T22:44:44.867Z,29.15
2019-04-27T22:47:16.267Z,30.00
2019-04-27T22:49:47.842Z,36.77
2019-04-27T22:52:19.181Z,32.60
2019-04-27T22:54:51.353Z,35.13
2019-04-27T22:59:56.030Z,32.63
2019-04-27T23:02:29.454Z,31.68
2019-04-27T23:05:02.648Z,33.23
2019-04-27T23:07:34.105Z,29.65
2019-04-27T23:10:06.788Z,29.20
2019-04-27T23:12:37.889Z,33.70
2019-04-27T23:15:10.708Z,30.17
2019-04-27T23:17:43.703Z,33.25
2019-04-27T23:20:15.104Z,32.67
2019-04-27T23:22:46.091Z,34.03
2019-04-27T23:25:17.863Z,33.73
2019-04-27T23:27:51.266Z,34.55
2019-04-27T23:30:23.225Z,31.37
2019-04-27T23:32:55.213Z,35.43
2019-04-27T23:35:26.962Z,30.92
2019-04-27T23:37:58.390Z,41.25
2019-04-27T23:40:31.641Z,32.78
2019-04-27T23:43:02.940Z,34.63
2019-04-27T23:45:34.700Z,37.42
2019-04-27T23:48:06.027Z,39.85
2019-04-27T23:50:39.160Z,37.55
2019-04-27T23:53:11.806Z,37.78
2019-04-27T23:55:43.008Z,34.53
2019-04-27T23:58:14.772Z,31.60
